sensor_id;sensor_type;location;lat;lon;timestamp;P1;durP1;ratioP1;P2;durP2;ratioP2
20986;SDS011;10652;50.306;8.570;2022-12-07T00:03:52;20.08;;;13.55;;
20986;SDS011;10652;50.306;8.570;2022-12-07T00:07:55;17.55;;;12.30;;
20986;SDS011;10652;50.306;8.570;2022-12-07T00:11:57;14.60;;;10.73;;
20986;SDS011;10652;50.306;8.570;2022-12-07T00:16:00;20.08;;;12.45;;
20986;SDS011;10652;50.306;8.570;2022-12-07T00:20:06;17.55;;;12.50;;
20986;SDS011;10652;50.306;8.570;2022-12-07T00:24:09;16.25;;;11.88;;
20986;SDS011;10652;50.306;8.570;2022-12-07T00:28:12;14.50;;;9.98;;
20986;SDS011;10652;50.306;8.570;2022-12-07T00:32:14;14.95;;;10.50;;
20986;SDS011;10652;50.306;8.570;2022-12-07T00:36:17;14.73;;;10.65;;
20986;SDS011;10652;50.306;8.570;2022-12-07T00:40:27;16.52;;;11.93;;
20986;SDS011;10652;50.306;8.570;2022-12-07T00:44:29;17.15;;;11.45;;
20986;SDS011;10652;50.306;8.570;2022-12-07T00:48:31;14.90;;;10.73;;
20986;SDS011;10652;50.306;8.570;2022-12-07T00:52:33;14.00;;;10.73;;
20986;SDS011;10652;50.306;8.570;2022-12-07T00:56:35;12.95;;;9.65;;
20986;SDS011;10652;50.306;8.570;2022-12-07T01:00:38;10.90;;;8.30;;
20986;SDS011;10652;50.306;8.570;2022-12-07T01:04:41;11.98;;;8.48;;
20986;SDS011;10652;50.306;8.570;2022-12-07T01:08:43;10.43;;;8.13;;
20986;SDS011;10652;50.306;8.570;2022-12-07T01:12:46;10.35;;;7.47;;
20986;SDS011;10652;50.306;8.570;2022-12-07T01:16:48;9.82;;;7.13;;
20986;SDS011;10652;50.306;8.570;2022-12-07T01:21:04;9.52;;;6.45;;
20986;SDS011;10652;50.306;8.570;2022-12-07T01:25:08;7.90;;;5.97;;
20986;SDS011;10652;50.306;8.570;2022-12-07T01:29:11;8.13;;;5.78;;
20986;SDS011;10652;50.306;8.570;2022-12-07T01:33:13;8.20;;;5.93;;
20986;SDS011;10652;50.306;8.570;2022-12-07T01:37:15;8.43;;;5.07;;
20986;SDS011;10652;50.306;8.570;2022-12-07T01:41:18;8.40;;;5.55;;
20986;SDS011;10652;50.306;8.570;2022-12-07T01:45:31;7.78;;;5.60;;
20986;SDS011;10652;50.306;8.570;2022-12-07T01:49:43;6.55;;;4.80;;
20986;SDS011;10652;50.306;8.570;2022-12-07T01:53:49;7.10;;;4.32;;
20986;SDS011;10652;50.306;8.570;2022-12-07T01:57:52;6.13;;;4.65;;
20986;SDS011;10652;50.306;8.570;2022-12-07T02:01:55;5.72;;;4.22;;
20986;SDS011;10652;50.306;8.570;2022-12-07T02:05:58;6.05;;;4.10;;
20986;SDS011;10652;50.306;8.570;2022-12-07T02:10:18;4.93;;;3.80;;
20986;SDS011;10652;50.306;8.570;2022-12-07T02:14:23;4.15;;;3.42;;
20986;SDS011;10652;50.306;8.570;2022-12-07T02:18:31;3.90;;;3.25;;
20986;SDS011;10652;50.306;8.570;2022-12-07T02:32:11;3.85;;;3.03;;
20986;SDS011;10652;50.306;8.570;2022-12-07T02:36:29;3.77;;;3.30;;
20986;SDS011;10652;50.306;8.570;2022-12-07T02:40:51;4.32;;;3.40;;
20986;SDS011;10652;50.306;8.570;2022-12-07T02:44:56;4.60;;;3.92;;
20986;SDS011;10652;50.306;8.570;2022-12-07T02:49:00;5.30;;;4.25;;
20986;SDS011;10652;50.306;8.570;2022-12-07T02:53:03;5.43;;;4.00;;
20986;SDS011;10652;50.306;8.570;2022-12-07T03:01:36;5.43;;;4.38;;
20986;SDS011;10652;50.306;8.570;2022-12-07T03:05:52;5.63;;;4.20;;
20986;SDS011;10652;50.306;8.570;2022-12-07T03:19:00;7.78;;;5.72;;
20986;SDS011;10652;50.306;8.570;2022-12-07T03:23:07;6.63;;;5.57;;
20986;SDS011;10652;50.306;8.570;2022-12-07T03:27:16;7.25;;;5.53;;
20986;SDS011;10652;50.306;8.570;2022-12-07T03:31:33;6.90;;;5.20;;
20986;SDS011;10652;50.306;8.570;2022-12-07T03:35:45;6.70;;;5.25;;
20986;SDS011;10652;50.306;8.570;2022-12-07T03:39:57;5.95;;;5.15;;
20986;SDS011;10652;50.306;8.570;2022-12-07T03:44:06;6.72;;;5.20;;
20986;SDS011;10652;50.306;8.570;2022-12-07T03:48:21;7.00;;;5.78;;
20986;SDS011;10652;50.306;8.570;2022-12-07T03:52:31;8.07;;;5.63;;
20986;SDS011;10652;50.306;8.570;2022-12-07T03:56:40;6.85;;;5.75;;
20986;SDS011;10652;50.306;8.570;2022-12-07T04:00:46;7.03;;;5.97;;
20986;SDS011;10652;50.306;8.570;2022-12-07T04:04:49;8.13;;;5.82;;
20986;SDS011;10652;50.306;8.570;2022-12-07T04:08:51;8.82;;;6.15;;
20986;SDS011;10652;50.306;8.570;2022-12-07T04:12:53;8.98;;;7.13;;
20986;SDS011;10652;50.306;8.570;2022-12-07T04:16:56;9.15;;;7.35;;
20986;SDS011;10652;50.306;8.570;2022-12-07T04:20:59;10.20;;;6.70;;
20986;SDS011;10652;50.306;8.570;2022-12-07T04:25:01;9.95;;;7.30;;
20986;SDS011;10652;50.306;8.570;2022-12-07T04:29:03;9.45;;;6.85;;
20986;SDS011;10652;50.306;8.570;2022-12-07T04:33:08;9.50;;;7.53;;
20986;SDS011;10652;50.306;8.570;2022-12-07T04:37:10;20.23;;;10.77;;
20986;SDS011;10652;50.306;8.570;2022-12-07T04:41:12;9.45;;;6.53;;
20986;SDS011;10652;50.306;8.570;2022-12-07T04:45:14;7.70;;;6.28;;
20986;SDS011;10652;50.306;8.570;2022-12-07T04:49:17;8.93;;;6.72;;
20986;SDS011;10652;50.306;8.570;2022-12-07T04:53:19;7.80;;;6.03;;
20986;SDS011;10652;50.306;8.570;2022-12-07T04:57:22;10.60;;;6.72;;
20986;SDS011;10652;50.306;8.570;2022-12-07T05:01:24;6.78;;;6.07;;
20986;SDS011;10652;50.306;8.570;2022-12-07T05:05:26;8.18;;;6.38;;
20986;SDS011;10652;50.306;8.570;2022-12-07T05:09:28;9.30;;;6.72;;
20986;SDS011;10652;50.306;8.570;2022-12-07T05:13:30;9.98;;;6.88;;
20986;SDS011;10652;50.306;8.570;2022-12-07T05:17:33;8.77;;;6.82;;
20986;SDS011;10652;50.306;8.570;2022-12-07T05:21:36;10.93;;;7.60;;
20986;SDS011;10652;50.306;8.570;2022-12-07T05:25:39;9.77;;;7.55;;
20986;SDS011;10652;50.306;8.570;2022-12-07T05:29:41;11.68;;;8.57;;
20986;SDS011;10652;50.306;8.570;2022-12-07T05:33:43;11.57;;;7.82;;
20986;SDS011;10652;50.306;8.570;2022-12-07T05:37:45;11.20;;;8.43;;
20986;SDS011;10652;50.306;8.570;2022-12-07T05:41:47;12.52;;;9.80;;
20986;SDS011;10652;50.306;8.570;2022-12-07T05:46:07;10.82;;;8.60;;
20986;SDS011;10652;50.306;8.570;2022-12-07T05:50:09;11.07;;;8.32;;
20986;SDS011;10652;50.306;8.570;2022-12-07T05:54:12;10.80;;;8.50;;
20986;SDS011;10652;50.306;8.570;2022-12-07T05:58:14;9.40;;;8.02;;
20986;SDS011;10652;50.306;8.570;2022-12-07T06:02:35;12.35;;;8.63;;
20986;SDS011;10652;50.306;8.570;2022-12-07T06:06:37;10.45;;;7.70;;
20986;SDS011;10652;50.306;8.570;2022-12-07T06:10:39;9.38;;;6.90;;
20986;SDS011;10652;50.306;8.570;2022-12-07T06:14:41;9.75;;;7.45;;
20986;SDS011;10652;50.306;8.570;2022-12-07T06:18:43;8.90;;;7.10;;
20986;SDS011;10652;50.306;8.570;2022-12-07T06:22:46;8.02;;;6.50;;
20986;SDS011;10652;50.306;8.570;2022-12-07T06:26:48;6.93;;;5.95;;
20986;SDS011;10652;50.306;8.570;2022-12-07T06:30:57;7.97;;;5.15;;
20986;SDS011;10652;50.306;8.570;2022-12-07T06:35:03;7.57;;;5.15;;
20986;SDS011;10652;50.306;8.570;2022-12-07T06:39:06;5.13;;;4.50;;
20986;SDS011;10652;50.306;8.570;2022-12-07T06:43:10;5.57;;;4.72;;
20986;SDS011;10652;50.306;8.570;2022-12-07T06:47:12;6.07;;;5.22;;
20986;SDS011;10652;50.306;8.570;2022-12-07T06:51:34;6.50;;;5.10;;
20986;SDS011;10652;50.306;8.570;2022-12-07T06:55:38;6.90;;;5.70;;
20986;SDS011;10652;50.306;8.570;2022-12-07T06:59:40;6.50;;;5.70;;
20986;SDS011;10652;50.306;8.570;2022-12-07T07:03:42;8.52;;;5.88;;
20986;SDS011;10652;50.306;8.570;2022-12-07T07:07:45;7.25;;;5.80;;
20986;SDS011;10652;50.306;8.570;2022-12-07T07:12:08;7.00;;;5.78;;
20986;SDS011;10652;50.306;8.570;2022-12-07T07:16:10;8.02;;;5.90;;
20986;SDS011;10652;50.306;8.570;2022-12-07T07:20:12;8.52;;;6.00;;
20986;SDS011;10652;50.306;8.570;2022-12-07T07:24:14;6.35;;;5.55;;
20986;SDS011;10652;50.306;8.570;2022-12-07T07:28:16;7.80;;;6.30;;
20986;SDS011;10652;50.306;8.570;2022-12-07T07:32:19;6.57;;;5.65;;
20986;SDS011;10652;50.306;8.570;2022-12-07T07:36:21;7.13;;;6.35;;
20986;SDS011;10652;50.306;8.570;2022-12-07T07:40:23;10.13;;;6.65;;
20986;SDS011;10652;50.306;8.570;2022-12-07T07:44:26;10.70;;;6.00;;
20986;SDS011;10652;50.306;8.570;2022-12-07T07:48:35;8.82;;;6.13;;
20986;SDS011;10652;50.306;8.570;2022-12-07T07:52:37;6.88;;;5.55;;
20986;SDS011;10652;50.306;8.570;2022-12-07T07:56:39;8.45;;;5.55;;
20986;SDS011;10652;50.306;8.570;2022-12-07T08:00:41;7.30;;;5.97;;
20986;SDS011;10652;50.306;8.570;2022-12-07T08:04:44;8.57;;;5.88;;
20986;SDS011;10652;50.306;8.570;2022-12-07T08:08:46;7.60;;;5.82;;
20986;SDS011;10652;50.306;8.570;2022-12-07T08:12:48;7.68;;;6.38;;
20986;SDS011;10652;50.306;8.570;2022-12-07T08:17:09;7.55;;;6.10;;
20986;SDS011;10652;50.306;8.570;2022-12-07T08:21:12;7.45;;;5.20;;
20986;SDS011;10652;50.306;8.570;2022-12-07T08:25:17;6.97;;;5.13;;
20986;SDS011;10652;50.306;8.570;2022-12-07T08:29:19;7.75;;;5.22;;
20986;SDS011;10652;50.306;8.570;2022-12-07T08:33:22;9.15;;;4.40;;
20986;SDS011;10652;50.306;8.570;2022-12-07T08:37:24;8.38;;;4.82;;
20986;SDS011;10652;50.306;8.570;2022-12-07T08:41:26;14.75;;;9.68;;
20986;SDS011;10652;50.306;8.570;2022-12-07T08:45:28;9.02;;;5.32;;
20986;SDS011;10652;50.306;8.570;2022-12-07T08:49:40;7.60;;;5.05;;
20986;SDS011;10652;50.306;8.570;2022-12-07T08:53:45;6.57;;;4.75;;
20986;SDS011;10652;50.306;8.570;2022-12-07T08:57:47;5.97;;;4.25;;
20986;SDS011;10652;50.306;8.570;2022-12-07T09:01:49;6.43;;;5.40;;
20986;SDS011;10652;50.306;8.570;2022-12-07T09:05:52;6.20;;;4.82;;
20986;SDS011;10652;50.306;8.570;2022-12-07T09:09:55;8.55;;;4.30;;
20986;SDS011;10652;50.306;8.570;2022-12-07T09:13:57;7.78;;;4.88;;
20986;SDS011;10652;50.306;8.570;2022-12-07T09:17:59;7.30;;;4.05;;
20986;SDS011;10652;50.306;8.570;2022-12-07T09:22:02;6.35;;;3.60;;
20986;SDS011;10652;50.306;8.570;2022-12-07T09:26:04;5.50;;;4.00;;
20986;SDS011;10652;50.306;8.570;2022-12-07T09:30:11;6.35;;;4.13;;
20986;SDS011;10652;50.306;8.570;2022-12-07T09:34:14;6.53;;;4.30;;
20986;SDS011;10652;50.306;8.570;2022-12-07T09:38:16;4.75;;;3.65;;
20986;SDS011;10652;50.306;8.570;2022-12-07T09:42:27;5.25;;;3.30;;
20986;SDS011;10652;50.306;8.570;2022-12-07T09:46:34;6.57;;;3.15;;
20986;SDS011;10652;50.306;8.570;2022-12-07T09:50:39;5.90;;;3.47;;
20986;SDS011;10652;50.306;8.570;2022-12-07T09:54:42;4.05;;;3.30;;
20986;SDS011;10652;50.306;8.570;2022-12-07T09:58:47;5.82;;;3.58;;
20986;SDS011;10652;50.306;8.570;2022-12-07T10:02:52;4.82;;;3.40;;
20986;SDS011;10652;50.306;8.570;2022-12-07T10:07:00;6.13;;;4.28;;
20986;SDS011;10652;50.306;8.570;2022-12-07T10:11:03;6.63;;;3.78;;
20986;SDS011;10652;50.306;8.570;2022-12-07T10:15:12;4.88;;;3.50;;
20986;SDS011;10652;50.306;8.570;2022-12-07T10:19:23;5.88;;;4.03;;
20986;SDS011;10652;50.306;8.570;2022-12-07T10:23:30;6.32;;;4.20;;
20986;SDS011;10652;50.306;8.570;2022-12-07T10:27:32;8.80;;;5.30;;
20986;SDS011;10652;50.306;8.570;2022-12-07T10:31:34;5.13;;;3.42;;
20986;SDS011;10652;50.306;8.570;2022-12-07T10:35:44;5.25;;;2.85;;
20986;SDS011;10652;50.306;8.570;2022-12-07T10:39:47;5.38;;;3.28;;
20986;SDS011;10652;50.306;8.570;2022-12-07T10:43:55;4.90;;;3.22;;
20986;SDS011;10652;50.306;8.570;2022-12-07T10:48:10;5.00;;;2.80;;
20986;SDS011;10652;50.306;8.570;2022-12-07T11:14:31;46.40;;;17.83;;
20986;SDS011;10652;50.306;8.570;2022-12-07T11:23:48;4.40;;;2.80;;
20986;SDS011;10652;50.306;8.570;2022-12-07T11:32:04;4.63;;;2.88;;
20986;SDS011;10652;50.306;8.570;2022-12-07T11:36:44;5.00;;;3.05;;
20986;SDS011;10652;50.306;8.570;2022-12-07T11:40:50;5.13;;;3.00;;
20986;SDS011;10652;50.306;8.570;2022-12-07T11:44:59;7.13;;;3.67;;
20986;SDS011;10652;50.306;8.570;2022-12-07T11:49:10;4.70;;;2.75;;
20986;SDS011;10652;50.306;8.570;2022-12-07T11:53:23;6.78;;;3.08;;
20986;SDS011;10652;50.306;8.570;2022-12-07T11:57:37;6.55;;;3.10;;
20986;SDS011;10652;50.306;8.570;2022-12-07T12:01:48;6.60;;;3.22;;
20986;SDS011;10652;50.306;8.570;2022-12-07T12:05:55;8.13;;;4.25;;
20986;SDS011;10652;50.306;8.570;2022-12-07T12:09:59;8.38;;;4.45;;
20986;SDS011;10652;50.306;8.570;2022-12-07T12:18:43;4.22;;;3.35;;
20986;SDS011;10652;50.306;8.570;2022-12-07T12:23:24;19.38;;;8.82;;
20986;SDS011;10652;50.306;8.570;2022-12-07T12:27:25;7.20;;;3.50;;
20986;SDS011;10652;50.306;8.570;2022-12-07T12:31:33;3.40;;;1.73;;
20986;SDS011;10652;50.306;8.570;2022-12-07T12:35:38;2.30;;;2.10;;
20986;SDS011;10652;50.306;8.570;2022-12-07T12:39:40;4.20;;;2.33;;
20986;SDS011;10652;50.306;8.570;2022-12-07T12:43:46;2.90;;;2.13;;
20986;SDS011;10652;50.306;8.570;2022-12-07T12:47:52;5.38;;;2.60;;
20986;SDS011;10652;50.306;8.570;2022-12-07T12:52:00;6.63;;;4.30;;
20986;SDS011;10652;50.306;8.570;2022-12-07T12:56:55;4.88;;;3.30;;
20986;SDS011;10652;50.306;8.570;2022-12-07T13:05:41;5.35;;;2.92;;
20986;SDS011;10652;50.306;8.570;2022-12-07T13:09:44;4.55;;;2.90;;
20986;SDS011;10652;50.306;8.570;2022-12-07T13:13:47;4.80;;;2.80;;
20986;SDS011;10652;50.306;8.570;2022-12-07T13:17:56;5.00;;;2.47;;
20986;SDS011;10652;50.306;8.570;2022-12-07T13:22:00;5.28;;;3.20;;
20986;SDS011;10652;50.306;8.570;2022-12-07T13:30:25;3.78;;;2.58;;
20986;SDS011;10652;50.306;8.570;2022-12-07T13:34:35;6.30;;;3.30;;
20986;SDS011;10652;50.306;8.570;2022-12-07T13:38:37;4.97;;;2.85;;
20986;SDS011;10652;50.306;8.570;2022-12-07T13:42:40;8.35;;;3.85;;
20986;SDS011;10652;50.306;8.570;2022-12-07T13:46:53;9.45;;;4.30;;
20986;SDS011;10652;50.306;8.570;2022-12-07T13:51:02;7.03;;;4.10;;
20986;SDS011;10652;50.306;8.570;2022-12-07T13:59:10;5.40;;;3.22;;
20986;SDS011;10652;50.306;8.570;2022-12-07T14:11:28;5.43;;;2.08;;
20986;SDS011;10652;50.306;8.570;2022-12-07T14:15:33;10.18;;;5.25;;
20986;SDS011;10652;50.306;8.570;2022-12-07T14:19:47;4.57;;;2.65;;
20986;SDS011;10652;50.306;8.570;2022-12-07T14:24:04;7.88;;;3.50;;
20986;SDS011;10652;50.306;8.570;2022-12-07T14:28:28;5.10;;;2.47;;
20986;SDS011;10652;50.306;8.570;2022-12-07T14:32:34;5.00;;;2.30;;
20986;SDS011;10652;50.306;8.570;2022-12-07T14:36:37;5.78;;;2.33;;
20986;SDS011;10652;50.306;8.570;2022-12-07T14:40:39;4.95;;;2.40;;
20986;SDS011;10652;50.306;8.570;2022-12-07T14:44:41;3.67;;;2.00;;
20986;SDS011;10652;50.306;8.570;2022-12-07T14:48:43;7.18;;;4.95;;
20986;SDS011;10652;50.306;8.570;2022-12-07T14:53:28;5.75;;;3.45;;
20986;SDS011;10652;50.306;8.570;2022-12-07T14:57:31;4.55;;;2.65;;
20986;SDS011;10652;50.306;8.570;2022-12-07T15:01:33;2.88;;;2.08;;
20986;SDS011;10652;50.306;8.570;2022-12-07T15:05:35;4.55;;;2.20;;
20986;SDS011;10652;50.306;8.570;2022-12-07T15:09:38;5.55;;;2.60;;
20986;SDS011;10652;50.306;8.570;2022-12-07T15:13:41;3.97;;;2.42;;
20986;SDS011;10652;50.306;8.570;2022-12-07T15:18:01;4.70;;;2.50;;
20986;SDS011;10652;50.306;8.570;2022-12-07T15:22:03;6.25;;;2.55;;
20986;SDS011;10652;50.306;8.570;2022-12-07T15:26:06;4.95;;;2.72;;
20986;SDS011;10652;50.306;8.570;2022-12-07T15:30:09;6.93;;;4.60;;
20986;SDS011;10652;50.306;8.570;2022-12-07T15:34:11;5.28;;;2.25;;
20986;SDS011;10652;50.306;8.570;2022-12-07T15:38:13;4.57;;;2.67;;
20986;SDS011;10652;50.306;8.570;2022-12-07T15:42:16;6.40;;;4.53;;
20986;SDS011;10652;50.306;8.570;2022-12-07T15:46:18;4.75;;;2.35;;
20986;SDS011;10652;50.306;8.570;2022-12-07T15:50:20;3.47;;;1.80;;
20986;SDS011;10652;50.306;8.570;2022-12-07T15:54:27;4.63;;;2.60;;
20986;SDS011;10652;50.306;8.570;2022-12-07T15:58:30;2.65;;;1.80;;
20986;SDS011;10652;50.306;8.570;2022-12-07T16:02:33;3.20;;;1.77;;
20986;SDS011;10652;50.306;8.570;2022-12-07T16:06:40;4.43;;;2.25;;
20986;SDS011;10652;50.306;8.570;2022-12-07T16:10:42;4.03;;;2.33;;
20986;SDS011;10652;50.306;8.570;2022-12-07T16:14:45;4.43;;;2.33;;
20986;SDS011;10652;50.306;8.570;2022-12-07T16:18:47;5.47;;;3.20;;
20986;SDS011;10652;50.306;8.570;2022-12-07T16:22:51;6.75;;;3.80;;
20986;SDS011;10652;50.306;8.570;2022-12-07T16:26:54;7.75;;;5.30;;
20986;SDS011;10652;50.306;8.570;2022-12-07T16:31:03;5.65;;;3.80;;
20986;SDS011;10652;50.306;8.570;2022-12-07T16:35:08;11.18;;;6.82;;
20986;SDS011;10652;50.306;8.570;2022-12-07T16:39:11;12.30;;;7.20;;
20986;SDS011;10652;50.306;8.570;2022-12-07T16:43:13;16.50;;;10.70;;
20986;SDS011;10652;50.306;8.570;2022-12-07T16:47:16;16.17;;;11.93;;
20986;SDS011;10652;50.306;8.570;2022-12-07T16:51:18;7.72;;;5.15;;
20986;SDS011;10652;50.306;8.570;2022-12-07T16:55:20;12.07;;;7.78;;
20986;SDS011;10652;50.306;8.570;2022-12-07T16:59:22;7.85;;;5.10;;
20986;SDS011;10652;50.306;8.570;2022-12-07T17:03:24;9.35;;;5.10;;
20986;SDS011;10652;50.306;8.570;2022-12-07T17:07:26;8.68;;;4.68;;
20986;SDS011;10652;50.306;8.570;2022-12-07T17:11:29;7.18;;;5.05;;
20986;SDS011;10652;50.306;8.570;2022-12-07T17:15:34;10.47;;;6.40;;
20986;SDS011;10652;50.306;8.570;2022-12-07T17:19:36;6.20;;;4.28;;
20986;SDS011;10652;50.306;8.570;2022-12-07T17:23:39;8.07;;;4.72;;
20986;SDS011;10652;50.306;8.570;2022-12-07T17:27:41;7.15;;;4.32;;
20986;SDS011;10652;50.306;8.570;2022-12-07T17:31:44;10.00;;;6.38;;
20986;SDS011;10652;50.306;8.570;2022-12-07T17:35:52;8.15;;;6.57;;
20986;SDS011;10652;50.306;8.570;2022-12-07T17:39:54;9.70;;;6.88;;
20986;SDS011;10652;50.306;8.570;2022-12-07T17:43:59;12.43;;;8.13;;
20986;SDS011;10652;50.306;8.570;2022-12-07T17:48:07;10.02;;;7.05;;
20986;SDS011;10652;50.306;8.570;2022-12-07T17:52:09;10.93;;;5.95;;
20986;SDS011;10652;50.306;8.570;2022-12-07T17:56:29;13.52;;;8.18;;
20986;SDS011;10652;50.306;8.570;2022-12-07T18:00:31;16.08;;;9.07;;
20986;SDS011;10652;50.306;8.570;2022-12-07T18:04:38;10.93;;;7.28;;
20986;SDS011;10652;50.306;8.570;2022-12-07T18:08:42;10.00;;;6.57;;
20986;SDS011;10652;50.306;8.570;2022-12-07T18:12:44;8.32;;;5.60;;
20986;SDS011;10652;50.306;8.570;2022-12-07T18:16:52;7.88;;;6.35;;
20986;SDS011;10652;50.306;8.570;2022-12-07T18:20:55;38.30;;;24.55;;
20986;SDS011;10652;50.306;8.570;2022-12-07T18:24:57;26.20;;;18.48;;
20986;SDS011;10652;50.306;8.570;2022-12-07T18:28:59;21.60;;;14.65;;
20986;SDS011;10652;50.306;8.570;2022-12-07T18:33:01;21.38;;;14.23;;
20986;SDS011;10652;50.306;8.570;2022-12-07T18:37:03;44.90;;;27.20;;
20986;SDS011;10652;50.306;8.570;2022-12-07T18:41:06;35.25;;;22.00;;
20986;SDS011;10652;50.306;8.570;2022-12-07T18:45:08;21.15;;;13.75;;
20986;SDS011;10652;50.306;8.570;2022-12-07T18:49:11;8.30;;;5.32;;
20986;SDS011;10652;50.306;8.570;2022-12-07T18:53:14;9.48;;;5.38;;
20986;SDS011;10652;50.306;8.570;2022-12-07T18:57:16;10.38;;;6.38;;
20986;SDS011;10652;50.306;8.570;2022-12-07T19:01:18;11.27;;;7.47;;
20986;SDS011;10652;50.306;8.570;2022-12-07T19:05:20;10.43;;;6.50;;
20986;SDS011;10652;50.306;8.570;2022-12-07T19:09:24;18.48;;;11.25;;
20986;SDS011;10652;50.306;8.570;2022-12-07T19:13:26;11.50;;;6.47;;
20986;SDS011;10652;50.306;8.570;2022-12-07T19:17:28;11.27;;;7.32;;
20986;SDS011;10652;50.306;8.570;2022-12-07T19:21:30;8.90;;;5.97;;
20986;SDS011;10652;50.306;8.570;2022-12-07T19:25:32;11.65;;;6.78;;
20986;SDS011;10652;50.306;8.570;2022-12-07T19:29:34;7.45;;;5.72;;
20986;SDS011;10652;50.306;8.570;2022-12-07T19:33:37;11.77;;;6.70;;
20986;SDS011;10652;50.306;8.570;2022-12-07T19:37:40;12.38;;;7.38;;
20986;SDS011;10652;50.306;8.570;2022-12-07T19:41:43;12.43;;;6.15;;
20986;SDS011;10652;50.306;8.570;2022-12-07T19:45:45;12.15;;;5.88;;
20986;SDS011;10652;50.306;8.570;2022-12-07T19:49:47;11.38;;;7.32;;
20986;SDS011;10652;50.306;8.570;2022-12-07T19:53:49;12.30;;;6.22;;
20986;SDS011;10652;50.306;8.570;2022-12-07T19:57:51;9.07;;;5.50;;
20986;SDS011;10652;50.306;8.570;2022-12-07T20:01:54;6.55;;;4.10;;
20986;SDS011;10652;50.306;8.570;2022-12-07T20:05:57;11.40;;;6.32;;
20986;SDS011;10652;50.306;8.570;2022-12-07T20:09:59;8.50;;;4.40;;
20986;SDS011;10652;50.306;8.570;2022-12-07T20:14:01;6.72;;;3.70;;
20986;SDS011;10652;50.306;8.570;2022-12-07T20:18:04;9.10;;;4.47;;
20986;SDS011;10652;50.306;8.570;2022-12-07T20:22:06;10.68;;;5.90;;
20986;SDS011;10652;50.306;8.570;2022-12-07T20:26:10;15.07;;;6.80;;
20986;SDS011;10652;50.306;8.570;2022-12-07T20:30:14;6.30;;;4.30;;
20986;SDS011;10652;50.306;8.570;2022-12-07T20:34:16;8.00;;;4.63;;
20986;SDS011;10652;50.306;8.570;2022-12-07T20:38:18;11.45;;;4.90;;
20986;SDS011;10652;50.306;8.570;2022-12-07T20:42:20;5.68;;;3.40;;
20986;SDS011;10652;50.306;8.570;2022-12-07T20:46:37;5.53;;;3.25;;
20986;SDS011;10652;50.306;8.570;2022-12-07T20:50:40;5.28;;;3.17;;
20986;SDS011;10652;50.306;8.570;2022-12-07T20:54:43;5.60;;;3.58;;
20986;SDS011;10652;50.306;8.570;2022-12-07T20:58:45;6.97;;;3.65;;
20986;SDS011;10652;50.306;8.570;2022-12-07T21:02:47;7.22;;;3.80;;
20986;SDS011;10652;50.306;8.570;2022-12-07T21:06:49;6.30;;;3.80;;
20986;SDS011;10652;50.306;8.570;2022-12-07T21:10:51;8.35;;;4.22;;
20986;SDS011;10652;50.306;8.570;2022-12-07T21:14:53;8.30;;;5.15;;
20986;SDS011;10652;50.306;8.570;2022-12-07T21:18:56;8.75;;;5.55;;
20986;SDS011;10652;50.306;8.570;2022-12-07T21:23:03;7.45;;;4.85;;
20986;SDS011;10652;50.306;8.570;2022-12-07T21:27:05;6.07;;;3.80;;
20986;SDS011;10652;50.306;8.570;2022-12-07T21:31:08;7.32;;;4.72;;
20986;SDS011;10652;50.306;8.570;2022-12-07T21:35:15;5.70;;;4.05;;
20986;SDS011;10652;50.306;8.570;2022-12-07T21:39:17;4.93;;;4.00;;
20986;SDS011;10652;50.306;8.570;2022-12-07T21:43:19;8.73;;;5.25;;
20986;SDS011;10652;50.306;8.570;2022-12-07T21:47:21;7.93;;;5.25;;
20986;SDS011;10652;50.306;8.570;2022-12-07T21:51:23;8.48;;;5.20;;
20986;SDS011;10652;50.306;8.570;2022-12-07T21:55:28;7.68;;;4.80;;
20986;SDS011;10652;50.306;8.570;2022-12-07T21:59:30;6.82;;;4.38;;
20986;SDS011;10652;50.306;8.570;2022-12-07T22:03:32;8.98;;;5.65;;
20986;SDS011;10652;50.306;8.570;2022-12-07T22:07:34;10.20;;;6.18;;
20986;SDS011;10652;50.306;8.570;2022-12-07T22:11:36;8.48;;;5.50;;
20986;SDS011;10652;50.306;8.570;2022-12-07T22:15:39;16.65;;;9.27;;
20986;SDS011;10652;50.306;8.570;2022-12-07T22:19:41;40.38;;;19.55;;
20986;SDS011;10652;50.306;8.570;2022-12-07T22:23:43;23.48;;;13.48;;
20986;SDS011;10652;50.306;8.570;2022-12-07T22:27:46;15.25;;;8.43;;
20986;SDS011;10652;50.306;8.570;2022-12-07T22:31:48;23.00;;;13.10;;
20986;SDS011;10652;50.306;8.570;2022-12-07T22:35:55;9.02;;;5.25;;
20986;SDS011;10652;50.306;8.570;2022-12-07T22:39:57;9.02;;;5.07;;
20986;SDS011;10652;50.306;8.570;2022-12-07T22:44:00;6.43;;;4.30;;
20986;SDS011;10652;50.306;8.570;2022-12-07T22:48:02;6.63;;;4.18;;
20986;SDS011;10652;50.306;8.570;2022-12-07T22:52:04;5.65;;;4.00;;
20986;SDS011;10652;50.306;8.570;2022-12-07T22:56:06;5.85;;;3.80;;
20986;SDS011;10652;50.306;8.570;2022-12-07T23:00:08;6.90;;;4.30;;
20986;SDS011;10652;50.306;8.570;2022-12-07T23:04:11;5.22;;;4.18;;
20986;SDS011;10652;50.306;8.570;2022-12-07T23:08:13;5.50;;;4.45;;
20986;SDS011;10652;50.306;8.570;2022-12-07T23:12:16;6.85;;;4.43;;
20986;SDS011;10652;50.306;8.570;2022-12-07T23:16:37;7.07;;;4.78;;
20986;SDS011;10652;50.306;8.570;2022-12-07T23:20:39;6.05;;;4.30;;
20986;SDS011;10652;50.306;8.570;2022-12-07T23:24:41;7.53;;;4.63;;
20986;SDS011;10652;50.306;8.570;2022-12-07T23:28:43;6.65;;;4.57;;
20986;SDS011;10652;50.306;8.570;2022-12-07T23:32:45;7.78;;;4.70;;
20986;SDS011;10652;50.306;8.570;2022-12-07T23:36:48;6.90;;;4.53;;
20986;SDS011;10652;50.306;8.570;2022-12-07T23:40:50;7.95;;;4.38;;
20986;SDS011;10652;50.306;8.570;2022-12-07T23:44:52;7.97;;;4.40;;
20986;SDS011;10652;50.306;8.570;2022-12-07T23:48:54;6.20;;;4.03;;
20986;SDS011;10652;50.306;8.570;2022-12-07T23:52:57;5.28;;;4.18;;
20986;SDS011;10652;50.306;8.570;2022-12-07T23:57:00;6.85;;;4.00;;
